NCAR-RAP Real-Time Weather Data

Output produced by METARs form (14 October 2019  22:34 UTC)
found at http://weather.rap.ucar.edu/surface/
 
KMHE 142153Z AUTO 10010KT 10SM CLR 16/05 A2973 RMK AO2 SLP074 T01610050
KMHE 142053Z AUTO 14016G24KT 10SM CLR 17/04 A2973 RMK AO2 PK WND 14027/2010 SLP073 T01670039 56035